sensor_id;sensor_type;location;lat;lon;timestamp;P1;durP1;ratioP1;P2;durP2;ratioP2
2408;SDS011;8463;48.094;7.970;2023-02-28T00:01:06;2.73;;;2.20;;
2408;SDS011;8463;48.094;7.970;2023-02-28T00:03:32;3.63;;;2.70;;
2408;SDS011;8463;48.094;7.970;2023-02-28T00:06:00;3.27;;;2.30;;
2408;SDS011;8463;48.094;7.970;2023-02-28T00:08:27;2.33;;;2.13;;
2408;SDS011;8463;48.094;7.970;2023-02-28T00:10:53;2.53;;;2.33;;
2408;SDS011;8463;48.094;7.970;2023-02-28T00:13:19;2.93;;;2.63;;
2408;SDS011;8463;48.094;7.970;2023-02-28T00:15:44;3.57;;;2.50;;
2408;SDS011;8463;48.094;7.970;2023-02-28T00:18:10;3.27;;;2.30;;
2408;SDS011;8463;48.094;7.970;2023-02-28T00:20:37;2.63;;;2.43;;
2408;SDS011;8463;48.094;7.970;2023-02-28T00:23:04;2.63;;;2.43;;
2408;SDS011;8463;48.094;7.970;2023-02-28T00:25:30;2.80;;;2.43;;
2408;SDS011;8463;48.094;7.970;2023-02-28T00:27:56;3.17;;;2.87;;
2408;SDS011;8463;48.094;7.970;2023-02-28T00:30:22;2.70;;;2.27;;
2408;SDS011;8463;48.094;7.970;2023-02-28T00:32:49;2.40;;;2.10;;
2408;SDS011;8463;48.094;7.970;2023-02-28T00:35:15;3.07;;;2.43;;
2408;SDS011;8463;48.094;7.970;2023-02-28T00:37:42;3.73;;;2.50;;
2408;SDS011;8463;48.094;7.970;2023-02-28T00:40:10;2.60;;;2.40;;
2408;SDS011;8463;48.094;7.970;2023-02-28T00:42:37;4.70;;;2.63;;
2408;SDS011;8463;48.094;7.970;2023-02-28T00:45:05;4.23;;;2.40;;
2408;SDS011;8463;48.094;7.970;2023-02-28T00:47:32;2.23;;;2.00;;
2408;SDS011;8463;48.094;7.970;2023-02-28T00:49:57;4.07;;;3.23;;
2408;SDS011;8463;48.094;7.970;2023-02-28T00:52:23;2.83;;;2.50;;
2408;SDS011;8463;48.094;7.970;2023-02-28T00:54:49;2.97;;;2.50;;
2408;SDS011;8463;48.094;7.970;2023-02-28T00:57:15;3.53;;;2.07;;
2408;SDS011;8463;48.094;7.970;2023-02-28T00:59:40;2.77;;;2.33;;
2408;SDS011;8463;48.094;7.970;2023-02-28T01:02:06;3.80;;;2.83;;
2408;SDS011;8463;48.094;7.970;2023-02-28T01:04:32;4.00;;;2.37;;
2408;SDS011;8463;48.094;7.970;2023-02-28T01:06:57;3.50;;;2.73;;
2408;SDS011;8463;48.094;7.970;2023-02-28T01:09:23;3.70;;;2.50;;
2408;SDS011;8463;48.094;7.970;2023-02-28T01:11:48;2.43;;;2.17;;
2408;SDS011;8463;48.094;7.970;2023-02-28T01:14:15;2.90;;;2.60;;
2408;SDS011;8463;48.094;7.970;2023-02-28T01:16:42;3.40;;;2.33;;
2408;SDS011;8463;48.094;7.970;2023-02-28T01:19:08;2.73;;;2.53;;
2408;SDS011;8463;48.094;7.970;2023-02-28T01:21:34;5.50;;;3.13;;
2408;SDS011;8463;48.094;7.970;2023-02-28T01:24:02;3.13;;;2.70;;
2408;SDS011;8463;48.094;7.970;2023-02-28T01:26:29;4.47;;;2.90;;
2408;SDS011;8463;48.094;7.970;2023-02-28T01:28:55;3.23;;;2.50;;
2408;SDS011;8463;48.094;7.970;2023-02-28T01:31:20;2.80;;;2.50;;
2408;SDS011;8463;48.094;7.970;2023-02-28T01:33:47;2.23;;;2.03;;
2408;SDS011;8463;48.094;7.970;2023-02-28T01:36:22;4.50;;;3.00;;
2408;SDS011;8463;48.094;7.970;2023-02-28T01:38:49;2.53;;;2.33;;
2408;SDS011;8463;48.094;7.970;2023-02-28T01:41:32;4.27;;;2.70;;
2408;SDS011;8463;48.094;7.970;2023-02-28T01:44:03;2.80;;;2.50;;
2408;SDS011;8463;48.094;7.970;2023-02-28T01:46:33;3.33;;;2.47;;
2408;SDS011;8463;48.094;7.970;2023-02-28T01:49:11;4.17;;;2.57;;
2408;SDS011;8463;48.094;7.970;2023-02-28T01:54:11;2.97;;;2.67;;
2408;SDS011;8463;48.094;7.970;2023-02-28T01:56:44;3.20;;;2.43;;
2408;SDS011;8463;48.094;7.970;2023-02-28T01:59:20;2.67;;;2.27;;
2408;SDS011;8463;48.094;7.970;2023-02-28T02:01:50;3.13;;;2.90;;
2408;SDS011;8463;48.094;7.970;2023-02-28T02:04:16;2.77;;;2.57;;
2408;SDS011;8463;48.094;7.970;2023-02-28T02:06:43;4.40;;;2.80;;
2408;SDS011;8463;48.094;7.970;2023-02-28T02:09:11;2.63;;;2.40;;
2408;SDS011;8463;48.094;7.970;2023-02-28T02:11:41;3.60;;;3.30;;
2408;SDS011;8463;48.094;7.970;2023-02-28T02:17:05;2.80;;;2.33;;
2408;SDS011;8463;48.094;7.970;2023-02-28T02:37:03;4.20;;;3.40;;
2408;SDS011;8463;48.094;7.970;2023-02-28T02:39:40;2.83;;;2.63;;
2408;SDS011;8463;48.094;7.970;2023-02-28T02:42:25;4.23;;;3.00;;
2408;SDS011;8463;48.094;7.970;2023-02-28T02:45:07;4.40;;;3.40;;
2408;SDS011;8463;48.094;7.970;2023-02-28T02:47:40;2.73;;;2.20;;
2408;SDS011;8463;48.094;7.970;2023-02-28T02:50:08;2.73;;;2.53;;
2408;SDS011;8463;48.094;7.970;2023-02-28T02:52:44;3.00;;;2.50;;
2408;SDS011;8463;48.094;7.970;2023-02-28T02:55:15;2.93;;;2.40;;
2408;SDS011;8463;48.094;7.970;2023-02-28T02:57:56;3.73;;;2.57;;
2408;SDS011;8463;48.094;7.970;2023-02-28T03:00:26;2.80;;;2.10;;
2408;SDS011;8463;48.094;7.970;2023-02-28T03:02:58;3.57;;;2.50;;
2408;SDS011;8463;48.094;7.970;2023-02-28T03:05:35;3.73;;;2.80;;
2408;SDS011;8463;48.094;7.970;2023-02-28T03:08:07;2.53;;;2.13;;
2408;SDS011;8463;48.094;7.970;2023-02-28T03:10:37;2.73;;;2.50;;
2408;SDS011;8463;48.094;7.970;2023-02-28T03:15:36;2.93;;;2.50;;
2408;SDS011;8463;48.094;7.970;2023-02-28T03:21:04;3.03;;;2.60;;
2408;SDS011;8463;48.094;7.970;2023-02-28T03:26:45;4.20;;;2.40;;
2408;SDS011;8463;48.094;7.970;2023-02-28T03:29:22;6.20;;;3.20;;
2408;SDS011;8463;48.094;7.970;2023-02-28T03:32:03;2.30;;;2.10;;
2408;SDS011;8463;48.094;7.970;2023-02-28T03:34:43;3.17;;;2.87;;
2408;SDS011;8463;48.094;7.970;2023-02-28T03:37:32;3.63;;;3.33;;
2408;SDS011;8463;48.094;7.970;2023-02-28T03:40:03;3.07;;;2.43;;
2408;SDS011;8463;48.094;7.970;2023-02-28T03:42:38;3.37;;;2.70;;
2408;SDS011;8463;48.094;7.970;2023-02-28T03:45:14;3.70;;;2.70;;
2408;SDS011;8463;48.094;7.970;2023-02-28T03:52:58;3.23;;;3.03;;
2408;SDS011;8463;48.094;7.970;2023-02-28T03:55:27;2.87;;;2.10;;
2408;SDS011;8463;48.094;7.970;2023-02-28T03:58:14;6.53;;;3.00;;
2408;SDS011;8463;48.094;7.970;2023-02-28T04:00:55;2.70;;;2.23;;
2408;SDS011;8463;48.094;7.970;2023-02-28T04:03:41;2.87;;;2.33;;
2408;SDS011;8463;48.094;7.970;2023-02-28T04:06:08;2.77;;;2.40;;
2408;SDS011;8463;48.094;7.970;2023-02-28T04:08:40;4.57;;;2.90;;
2408;SDS011;8463;48.094;7.970;2023-02-28T04:11:20;3.63;;;3.23;;
2408;SDS011;8463;48.094;7.970;2023-02-28T04:13:49;3.97;;;3.37;;
2408;SDS011;8463;48.094;7.970;2023-02-28T04:16:14;6.70;;;2.67;;
2408;SDS011;8463;48.094;7.970;2023-02-28T04:18:43;3.33;;;2.50;;
2408;SDS011;8463;48.094;7.970;2023-02-28T04:21:09;4.70;;;3.20;;
2408;SDS011;8463;48.094;7.970;2023-02-28T04:23:36;2.83;;;2.50;;
2408;SDS011;8463;48.094;7.970;2023-02-28T04:26:01;3.73;;;3.00;;
2408;SDS011;8463;48.094;7.970;2023-02-28T04:28:27;3.90;;;2.70;;
2408;SDS011;8463;48.094;7.970;2023-02-28T04:31:00;5.67;;;3.20;;
2408;SDS011;8463;48.094;7.970;2023-02-28T04:33:31;7.70;;;3.07;;
2408;SDS011;8463;48.094;7.970;2023-02-28T04:36:04;3.07;;;2.83;;
2408;SDS011;8463;48.094;7.970;2023-02-28T04:38:33;3.47;;;2.70;;
2408;SDS011;8463;48.094;7.970;2023-02-28T04:41:01;3.40;;;3.10;;
2408;SDS011;8463;48.094;7.970;2023-02-28T04:43:27;3.60;;;2.87;;
2408;SDS011;8463;48.094;7.970;2023-02-28T04:45:54;3.77;;;3.07;;
2408;SDS011;8463;48.094;7.970;2023-02-28T04:48:22;4.50;;;3.57;;
2408;SDS011;8463;48.094;7.970;2023-02-28T04:50:51;4.47;;;2.83;;
2408;SDS011;8463;48.094;7.970;2023-02-28T04:53:17;5.27;;;3.77;;
2408;SDS011;8463;48.094;7.970;2023-02-28T04:55:43;4.57;;;3.60;;
2408;SDS011;8463;48.094;7.970;2023-02-28T04:58:08;3.53;;;2.83;;
2408;SDS011;8463;48.094;7.970;2023-02-28T05:00:34;3.97;;;3.00;;
2408;SDS011;8463;48.094;7.970;2023-02-28T05:03:00;5.57;;;3.60;;
2408;SDS011;8463;48.094;7.970;2023-02-28T05:05:28;3.40;;;3.10;;
2408;SDS011;8463;48.094;7.970;2023-02-28T05:07:54;3.47;;;3.17;;
2408;SDS011;8463;48.094;7.970;2023-02-28T05:10:21;3.37;;;3.17;;
2408;SDS011;8463;48.094;7.970;2023-02-28T05:12:50;3.70;;;3.00;;
2408;SDS011;8463;48.094;7.970;2023-02-28T05:15:18;3.30;;;3.10;;
2408;SDS011;8463;48.094;7.970;2023-02-28T05:17:44;3.20;;;2.90;;
2408;SDS011;8463;48.094;7.970;2023-02-28T05:20:09;3.10;;;2.80;;
2408;SDS011;8463;48.094;7.970;2023-02-28T05:22:36;4.80;;;3.60;;
2408;SDS011;8463;48.094;7.970;2023-02-28T05:25:10;4.40;;;2.70;;
2408;SDS011;8463;48.094;7.970;2023-02-28T05:27:34;4.70;;;3.60;;
2408;SDS011;8463;48.094;7.970;2023-02-28T05:30:00;4.47;;;3.10;;
2408;SDS011;8463;48.094;7.970;2023-02-28T05:32:28;3.70;;;3.40;;
2408;SDS011;8463;48.094;7.970;2023-02-28T05:34:54;5.40;;;3.43;;
2408;SDS011;8463;48.094;7.970;2023-02-28T05:37:19;5.40;;;3.37;;
2408;SDS011;8463;48.094;7.970;2023-02-28T05:39:45;6.00;;;3.97;;
2408;SDS011;8463;48.094;7.970;2023-02-28T05:42:11;5.47;;;3.47;;
2408;SDS011;8463;48.094;7.970;2023-02-28T05:44:37;3.93;;;3.27;;
2408;SDS011;8463;48.094;7.970;2023-02-28T05:47:02;5.20;;;3.50;;
2408;SDS011;8463;48.094;7.970;2023-02-28T05:49:28;3.13;;;2.83;;
2408;SDS011;8463;48.094;7.970;2023-02-28T05:51:54;3.90;;;3.60;;
2408;SDS011;8463;48.094;7.970;2023-02-28T05:54:19;3.73;;;2.93;;
2408;SDS011;8463;48.094;7.970;2023-02-28T05:56:45;4.73;;;3.60;;
2408;SDS011;8463;48.094;7.970;2023-02-28T05:59:13;5.60;;;4.00;;
2408;SDS011;8463;48.094;7.970;2023-02-28T06:01:43;5.07;;;3.80;;
2408;SDS011;8463;48.094;7.970;2023-02-28T06:04:13;6.10;;;4.27;;
2408;SDS011;8463;48.094;7.970;2023-02-28T06:06:43;4.80;;;3.97;;
2408;SDS011;8463;48.094;7.970;2023-02-28T06:09:09;5.80;;;4.20;;
2408;SDS011;8463;48.094;7.970;2023-02-28T06:11:36;4.03;;;3.20;;
2408;SDS011;8463;48.094;7.970;2023-02-28T06:14:02;5.00;;;3.73;;
2408;SDS011;8463;48.094;7.970;2023-02-28T06:16:28;4.23;;;3.30;;
2408;SDS011;8463;48.094;7.970;2023-02-28T06:19:00;3.90;;;3.13;;
2408;SDS011;8463;48.094;7.970;2023-02-28T06:21:30;8.87;;;4.53;;
2408;SDS011;8463;48.094;7.970;2023-02-28T06:23:56;4.53;;;3.60;;
2408;SDS011;8463;48.094;7.970;2023-02-28T06:26:22;5.00;;;4.50;;
2408;SDS011;8463;48.094;7.970;2023-02-28T06:28:48;7.77;;;4.67;;
2408;SDS011;8463;48.094;7.970;2023-02-28T06:31:15;4.23;;;3.73;;
2408;SDS011;8463;48.094;7.970;2023-02-28T06:33:42;4.73;;;3.30;;
2408;SDS011;8463;48.094;7.970;2023-02-28T06:36:08;3.43;;;3.13;;
2408;SDS011;8463;48.094;7.970;2023-02-28T06:38:35;4.30;;;3.90;;
2408;SDS011;8463;48.094;7.970;2023-02-28T06:41:01;6.40;;;4.97;;
2408;SDS011;8463;48.094;7.970;2023-02-28T06:43:28;4.10;;;3.57;;
2408;SDS011;8463;48.094;7.970;2023-02-28T06:45:56;9.30;;;2.80;;
2408;SDS011;8463;48.094;7.970;2023-02-28T06:48:23;6.73;;;4.53;;
2408;SDS011;8463;48.094;7.970;2023-02-28T06:50:50;6.03;;;4.80;;
2408;SDS011;8463;48.094;7.970;2023-02-28T06:53:16;4.37;;;3.53;;
2408;SDS011;8463;48.094;7.970;2023-02-28T06:55:42;5.30;;;4.23;;
2408;SDS011;8463;48.094;7.970;2023-02-28T06:58:07;5.57;;;4.03;;
2408;SDS011;8463;48.094;7.970;2023-02-28T07:00:42;7.50;;;4.10;;
2408;SDS011;8463;48.094;7.970;2023-02-28T07:03:08;6.90;;;4.20;;
2408;SDS011;8463;48.094;7.970;2023-02-28T07:05:38;5.20;;;4.20;;
2408;SDS011;8463;48.094;7.970;2023-02-28T07:08:05;4.73;;;4.33;;
2408;SDS011;8463;48.094;7.970;2023-02-28T07:10:31;8.25;;;5.90;;
2408;SDS011;8463;48.094;7.970;2023-02-28T07:12:58;4.47;;;3.87;;
2408;SDS011;8463;48.094;7.970;2023-02-28T07:15:24;5.00;;;4.23;;
2408;SDS011;8463;48.094;7.970;2023-02-28T07:17:49;4.23;;;3.93;;
2408;SDS011;8463;48.094;7.970;2023-02-28T07:20:15;4.40;;;4.00;;
2408;SDS011;8463;48.094;7.970;2023-02-28T07:22:41;4.90;;;4.27;;
2408;SDS011;8463;48.094;7.970;2023-02-28T07:25:07;5.60;;;4.00;;
2408;SDS011;8463;48.094;7.970;2023-02-28T07:27:34;5.37;;;4.50;;
2408;SDS011;8463;48.094;7.970;2023-02-28T07:29:59;5.10;;;4.57;;
2408;SDS011;8463;48.094;7.970;2023-02-28T07:32:27;4.47;;;3.93;;
2408;SDS011;8463;48.094;7.970;2023-02-28T07:34:53;4.93;;;4.43;;
2408;SDS011;8463;48.094;7.970;2023-02-28T07:37:19;6.50;;;4.60;;
2408;SDS011;8463;48.094;7.970;2023-02-28T07:39:45;5.00;;;4.30;;
2408;SDS011;8463;48.094;7.970;2023-02-28T07:42:11;7.00;;;5.40;;
2408;SDS011;8463;48.094;7.970;2023-02-28T07:44:40;5.77;;;4.73;;
2408;SDS011;8463;48.094;7.970;2023-02-28T07:47:10;4.20;;;3.80;;
2408;SDS011;8463;48.094;7.970;2023-02-28T07:49:36;6.10;;;4.30;;
2408;SDS011;8463;48.094;7.970;2023-02-28T07:52:03;5.17;;;4.70;;
2408;SDS011;8463;48.094;7.970;2023-02-28T07:54:30;6.27;;;4.43;;
2408;SDS011;8463;48.094;7.970;2023-02-28T07:56:55;4.90;;;4.30;;
2408;SDS011;8463;48.094;7.970;2023-02-28T07:59:21;5.50;;;4.90;;
2408;SDS011;8463;48.094;7.970;2023-02-28T08:01:47;5.30;;;4.77;;
2408;SDS011;8463;48.094;7.970;2023-02-28T08:04:15;6.00;;;5.40;;
2408;SDS011;8463;48.094;7.970;2023-02-28T08:06:41;5.53;;;4.33;;
2408;SDS011;8463;48.094;7.970;2023-02-28T08:09:07;7.40;;;4.70;;
2408;SDS011;8463;48.094;7.970;2023-02-28T08:11:32;6.50;;;4.90;;
2408;SDS011;8463;48.094;7.970;2023-02-28T08:13:58;6.03;;;4.77;;
2408;SDS011;8463;48.094;7.970;2023-02-28T08:16:24;7.83;;;5.87;;
2408;SDS011;8463;48.094;7.970;2023-02-28T08:18:50;9.53;;;6.10;;
2408;SDS011;8463;48.094;7.970;2023-02-28T08:21:17;7.90;;;5.60;;
2408;SDS011;8463;48.094;7.970;2023-02-28T08:23:43;8.53;;;5.60;;
2408;SDS011;8463;48.094;7.970;2023-02-28T08:26:11;6.30;;;5.20;;
2408;SDS011;8463;48.094;7.970;2023-02-28T08:28:36;8.50;;;6.20;;
2408;SDS011;8463;48.094;7.970;2023-02-28T08:31:06;10.90;;;6.40;;
2408;SDS011;8463;48.094;7.970;2023-02-28T08:33:34;5.63;;;5.00;;
2408;SDS011;8463;48.094;7.970;2023-02-28T08:35:59;6.70;;;5.33;;
2408;SDS011;8463;48.094;7.970;2023-02-28T08:38:25;6.70;;;5.97;;
2408;SDS011;8463;48.094;7.970;2023-02-28T08:40:56;8.27;;;6.00;;
2408;SDS011;8463;48.094;7.970;2023-02-28T08:43:26;6.67;;;5.40;;
2408;SDS011;8463;48.094;7.970;2023-02-28T08:45:52;5.60;;;5.10;;
2408;SDS011;8463;48.094;7.970;2023-02-28T08:48:19;7.77;;;5.20;;
2408;SDS011;8463;48.094;7.970;2023-02-28T08:50:54;7.33;;;4.80;;
2408;SDS011;8463;48.094;7.970;2023-02-28T08:53:24;5.90;;;4.13;;
2408;SDS011;8463;48.094;7.970;2023-02-28T08:55:59;5.97;;;4.90;;
2408;SDS011;8463;48.094;7.970;2023-02-28T08:58:31;5.30;;;4.80;;
2408;SDS011;8463;48.094;7.970;2023-02-28T09:00:58;5.40;;;4.77;;
2408;SDS011;8463;48.094;7.970;2023-02-28T09:03:24;6.40;;;4.33;;
2408;SDS011;8463;48.094;7.970;2023-02-28T09:08:18;7.00;;;5.60;;
2408;SDS011;8463;48.094;7.970;2023-02-28T09:10:44;6.00;;;5.40;;
2408;SDS011;8463;48.094;7.970;2023-02-28T09:13:09;4.43;;;4.03;;
2408;SDS011;8463;48.094;7.970;2023-02-28T09:15:36;4.40;;;4.00;;
2408;SDS011;8463;48.094;7.970;2023-02-28T09:18:03;7.20;;;5.17;;
2408;SDS011;8463;48.094;7.970;2023-02-28T09:20:28;5.00;;;4.50;;
2408;SDS011;8463;48.094;7.970;2023-02-28T09:22:54;5.83;;;4.73;;
2408;SDS011;8463;48.094;7.970;2023-02-28T09:25:20;5.33;;;4.83;;
2408;SDS011;8463;48.094;7.970;2023-02-28T09:27:46;7.10;;;4.70;;
2408;SDS011;8463;48.094;7.970;2023-02-28T09:30:12;5.63;;;4.60;;
2408;SDS011;8463;48.094;7.970;2023-02-28T09:32:38;6.03;;;5.30;;
2408;SDS011;8463;48.094;7.970;2023-02-28T09:35:04;5.93;;;4.70;;
2408;SDS011;8463;48.094;7.970;2023-02-28T09:37:30;5.60;;;5.00;;
2408;SDS011;8463;48.094;7.970;2023-02-28T09:39:57;6.90;;;5.37;;
2408;SDS011;8463;48.094;7.970;2023-02-28T09:42:28;5.53;;;4.50;;
2408;SDS011;8463;48.094;7.970;2023-02-28T09:44:58;6.63;;;4.83;;
2408;SDS011;8463;48.094;7.970;2023-02-28T09:47:28;7.10;;;5.77;;
2408;SDS011;8463;48.094;7.970;2023-02-28T09:49:58;7.07;;;5.20;;
2408;SDS011;8463;48.094;7.970;2023-02-28T09:52:33;6.63;;;4.60;;
2408;SDS011;8463;48.094;7.970;2023-02-28T09:57:43;8.57;;;5.47;;
2408;SDS011;8463;48.094;7.970;2023-02-28T10:08:34;10.13;;;5.20;;
2408;SDS011;8463;48.094;7.970;2023-02-28T10:11:06;6.07;;;5.50;;
2408;SDS011;8463;48.094;7.970;2023-02-28T10:13:55;5.30;;;4.80;;
2408;SDS011;8463;48.094;7.970;2023-02-28T10:16:36;5.50;;;5.00;;
2408;SDS011;8463;48.094;7.970;2023-02-28T10:19:16;6.63;;;5.03;;
2408;SDS011;8463;48.094;7.970;2023-02-28T10:24:53;8.13;;;5.97;;
2408;SDS011;8463;48.094;7.970;2023-02-28T10:27:29;6.83;;;5.53;;
2408;SDS011;8463;48.094;7.970;2023-02-28T10:29:56;7.87;;;6.50;;
2408;SDS011;8463;48.094;7.970;2023-02-28T10:32:27;8.10;;;6.63;;
2408;SDS011;8463;48.094;7.970;2023-02-28T10:35:16;7.97;;;5.53;;
2408;SDS011;8463;48.094;7.970;2023-02-28T10:37:43;6.13;;;5.60;;
2408;SDS011;8463;48.094;7.970;2023-02-28T10:43:11;7.90;;;6.00;;
2408;SDS011;8463;48.094;7.970;2023-02-28T10:45:35;10.07;;;5.37;;
2408;SDS011;8463;48.094;7.970;2023-02-28T10:51:13;5.63;;;5.10;;
2408;SDS011;8463;48.094;7.970;2023-02-28T10:53:34;6.13;;;5.40;;
2408;SDS011;8463;48.094;7.970;2023-02-28T11:09:45;7.87;;;6.63;;
2408;SDS011;8463;48.094;7.970;2023-02-28T11:12:21;6.63;;;5.70;;
2408;SDS011;8463;48.094;7.970;2023-02-28T11:15:06;6.50;;;5.70;;
2408;SDS011;8463;48.094;7.970;2023-02-28T11:21:08;9.70;;;7.53;;
2408;SDS011;8463;48.094;7.970;2023-02-28T11:23:36;6.77;;;5.80;;
2408;SDS011;8463;48.094;7.970;2023-02-28T11:26:05;8.67;;;5.53;;
2408;SDS011;8463;48.094;7.970;2023-02-28T11:28:35;9.07;;;7.20;;
2408;SDS011;8463;48.094;7.970;2023-02-28T11:36:22;9.50;;;7.87;;
2408;SDS011;8463;48.094;7.970;2023-02-28T11:38:50;9.23;;;7.10;;
2408;SDS011;8463;48.094;7.970;2023-02-28T11:46:51;8.00;;;5.53;;
2408;SDS011;8463;48.094;7.970;2023-02-28T11:49:32;8.20;;;7.03;;
2408;SDS011;8463;48.094;7.970;2023-02-28T11:53:00;7.10;;;6.20;;
2408;SDS011;8463;48.094;7.970;2023-02-28T11:58:00;7.80;;;5.60;;
2408;SDS011;8463;48.094;7.970;2023-02-28T12:03:16;6.63;;;5.77;;
2408;SDS011;8463;48.094;7.970;2023-02-28T12:05:46;6.90;;;5.60;;
2408;SDS011;8463;48.094;7.970;2023-02-28T12:18:36;6.70;;;5.60;;
2408;SDS011;8463;48.094;7.970;2023-02-28T12:23:54;7.63;;;6.40;;
2408;SDS011;8463;48.094;7.970;2023-02-28T12:26:41;7.13;;;5.70;;
2408;SDS011;8463;48.094;7.970;2023-02-28T12:29:10;6.90;;;6.10;;
2408;SDS011;8463;48.094;7.970;2023-02-28T12:31:42;10.20;;;7.43;;
2408;SDS011;8463;48.094;7.970;2023-02-28T12:34:16;8.70;;;6.10;;
2408;SDS011;8463;48.094;7.970;2023-02-28T12:36:48;6.33;;;5.50;;
2408;SDS011;8463;48.094;7.970;2023-02-28T12:39:25;10.83;;;7.80;;
2408;SDS011;8463;48.094;7.970;2023-02-28T12:41:59;8.80;;;6.50;;
2408;SDS011;8463;48.094;7.970;2023-02-28T12:44:38;7.03;;;6.33;;
2408;SDS011;8463;48.094;7.970;2023-02-28T12:47:12;9.80;;;6.97;;
2408;SDS011;8463;48.094;7.970;2023-02-28T12:52:52;8.63;;;6.50;;
2408;SDS011;8463;48.094;7.970;2023-02-28T12:58:38;7.57;;;6.47;;
2408;SDS011;8463;48.094;7.970;2023-02-28T13:09:35;9.17;;;6.50;;
2408;SDS011;8463;48.094;7.970;2023-02-28T13:12:04;10.37;;;7.13;;
2408;SDS011;8463;48.094;7.970;2023-02-28T13:14:38;6.97;;;5.93;;
2408;SDS011;8463;48.094;7.970;2023-02-28T13:19:37;9.50;;;7.27;;
2408;SDS011;8463;48.094;7.970;2023-02-28T13:22:17;8.97;;;6.80;;
2408;SDS011;8463;48.094;7.970;2023-02-28T13:27:48;7.90;;;6.13;;
2408;SDS011;8463;48.094;7.970;2023-02-28T13:33:20;6.43;;;5.50;;
2408;SDS011;8463;48.094;7.970;2023-02-28T13:44:08;8.97;;;7.40;;
2408;SDS011;8463;48.094;7.970;2023-02-28T13:46:35;7.13;;;6.43;;
2408;SDS011;8463;48.094;7.970;2023-02-28T13:49:33;7.30;;;6.57;;
2408;SDS011;8463;48.094;7.970;2023-02-28T14:00:44;6.80;;;6.17;;
2408;SDS011;8463;48.094;7.970;2023-02-28T14:09:30;9.83;;;7.77;;
2408;SDS011;8463;48.094;7.970;2023-02-28T14:11:42;8.93;;;8.03;;
2408;SDS011;8463;48.094;7.970;2023-02-28T14:14:09;8.73;;;7.87;;
2408;SDS011;8463;48.094;7.970;2023-02-28T14:16:55;10.40;;;7.70;;
2408;SDS011;8463;48.094;7.970;2023-02-28T14:19:26;7.93;;;7.23;;
2408;SDS011;8463;48.094;7.970;2023-02-28T14:38:05;10.97;;;7.40;;
2408;SDS011;8463;48.094;7.970;2023-02-28T14:40:38;9.60;;;8.60;;
2408;SDS011;8463;48.094;7.970;2023-02-28T14:43:04;10.80;;;7.47;;
2408;SDS011;8463;48.094;7.970;2023-02-28T14:45:42;10.17;;;7.00;;
2408;SDS011;8463;48.094;7.970;2023-02-28T14:48:09;9.70;;;7.63;;
2408;SDS011;8463;48.094;7.970;2023-02-28T14:50:35;10.80;;;8.47;;
2408;SDS011;8463;48.094;7.970;2023-02-28T14:53:02;9.53;;;7.40;;
2408;SDS011;8463;48.094;7.970;2023-02-28T14:55:30;9.37;;;7.10;;
2408;SDS011;8463;48.094;7.970;2023-02-28T14:58:03;8.70;;;7.77;;
2408;SDS011;8463;48.094;7.970;2023-02-28T15:02:58;9.60;;;7.10;;
2408;SDS011;8463;48.094;7.970;2023-02-28T15:05:30;8.40;;;7.20;;
2408;SDS011;8463;48.094;7.970;2023-02-28T15:08:31;7.73;;;6.93;;
2408;SDS011;8463;48.094;7.970;2023-02-28T15:10:55;10.50;;;7.43;;
2408;SDS011;8463;48.094;7.970;2023-02-28T15:13:24;7.80;;;6.40;;
2408;SDS011;8463;48.094;7.970;2023-02-28T15:16:00;7.40;;;6.70;;
2408;SDS011;8463;48.094;7.970;2023-02-28T15:19:03;10.07;;;7.70;;
2408;SDS011;8463;48.094;7.970;2023-02-28T15:21:26;7.43;;;6.73;;
2408;SDS011;8463;48.094;7.970;2023-02-28T15:24:00;10.87;;;7.67;;
2408;SDS011;8463;48.094;7.970;2023-02-28T15:26:50;7.00;;;5.57;;
2408;SDS011;8463;48.094;7.970;2023-02-28T15:29:20;8.67;;;7.20;;
2408;SDS011;8463;48.094;7.970;2023-02-28T15:32:00;9.00;;;8.10;;
2408;SDS011;8463;48.094;7.970;2023-02-28T15:43:03;8.20;;;7.00;;
2408;SDS011;8463;48.094;7.970;2023-02-28T15:45:39;8.77;;;6.60;;
2408;SDS011;8463;48.094;7.970;2023-02-28T15:48:17;8.43;;;6.43;;
2408;SDS011;8463;48.094;7.970;2023-02-28T15:50:52;8.50;;;7.60;;
2408;SDS011;8463;48.094;7.970;2023-02-28T15:53:21;8.63;;;7.60;;
2408;SDS011;8463;48.094;7.970;2023-02-28T15:55:55;8.30;;;5.77;;
2408;SDS011;8463;48.094;7.970;2023-02-28T15:58:24;8.77;;;7.20;;
2408;SDS011;8463;48.094;7.970;2023-02-28T16:01:00;7.80;;;7.00;;
2408;SDS011;8463;48.094;7.970;2023-02-28T16:03:37;14.60;;;7.50;;
2408;SDS011;8463;48.094;7.970;2023-02-28T16:08:45;7.73;;;6.93;;
2408;SDS011;8463;48.094;7.970;2023-02-28T16:11:13;9.00;;;8.07;;
2408;SDS011;8463;48.094;7.970;2023-02-28T16:13:39;10.57;;;8.33;;
2408;SDS011;8463;48.094;7.970;2023-02-28T16:16:05;8.23;;;7.43;;
2408;SDS011;8463;48.094;7.970;2023-02-28T16:18:31;9.47;;;7.30;;
2408;SDS011;8463;48.094;7.970;2023-02-28T16:20:56;9.27;;;7.73;;
2408;SDS011;8463;48.094;7.970;2023-02-28T16:23:22;12.37;;;8.20;;
2408;SDS011;8463;48.094;7.970;2023-02-28T16:25:47;11.97;;;9.63;;
2408;SDS011;8463;48.094;7.970;2023-02-28T16:28:17;10.70;;;8.53;;
2408;SDS011;8463;48.094;7.970;2023-02-28T16:30:53;10.53;;;8.43;;
2408;SDS011;8463;48.094;7.970;2023-02-28T16:33:19;9.97;;;8.40;;
2408;SDS011;8463;48.094;7.970;2023-02-28T16:35:45;9.10;;;8.07;;
2408;SDS011;8463;48.094;7.970;2023-02-28T16:38:10;9.30;;;8.40;;
2408;SDS011;8463;48.094;7.970;2023-02-28T16:40:36;9.87;;;8.23;;
2408;SDS011;8463;48.094;7.970;2023-02-28T16:43:04;10.70;;;7.80;;
2408;SDS011;8463;48.094;7.970;2023-02-28T16:45:34;7.73;;;6.93;;
2408;SDS011;8463;48.094;7.970;2023-02-28T16:48:00;9.20;;;7.33;;
2408;SDS011;8463;48.094;7.970;2023-02-28T16:50:27;10.90;;;9.27;;
2408;SDS011;8463;48.094;7.970;2023-02-28T16:52:54;9.03;;;8.10;;
2408;SDS011;8463;48.094;7.970;2023-02-28T16:55:22;8.80;;;7.90;;
2408;SDS011;8463;48.094;7.970;2023-02-28T16:57:52;11.03;;;9.30;;
2408;SDS011;8463;48.094;7.970;2023-02-28T17:00:23;10.13;;;9.13;;
2408;SDS011;8463;48.094;7.970;2023-02-28T17:02:50;10.57;;;8.80;;
2408;SDS011;8463;48.094;7.970;2023-02-28T17:05:16;10.77;;;9.37;;
2408;SDS011;8463;48.094;7.970;2023-02-28T17:07:43;9.67;;;8.73;;
2408;SDS011;8463;48.094;7.970;2023-02-28T17:10:12;14.40;;;9.70;;
2408;SDS011;8463;48.094;7.970;2023-02-28T17:12:41;9.67;;;8.70;;
2408;SDS011;8463;48.094;7.970;2023-02-28T17:15:08;13.90;;;9.53;;
2408;SDS011;8463;48.094;7.970;2023-02-28T17:17:35;10.10;;;7.87;;
2408;SDS011;8463;48.094;7.970;2023-02-28T17:20:01;9.80;;;8.80;;
2408;SDS011;8463;48.094;7.970;2023-02-28T17:22:28;12.70;;;10.67;;
2408;SDS011;8463;48.094;7.970;2023-02-28T17:24:54;11.23;;;10.13;;
2408;SDS011;8463;48.094;7.970;2023-02-28T17:27:20;14.07;;;10.03;;
2408;SDS011;8463;48.094;7.970;2023-02-28T17:29:47;11.80;;;9.73;;
2408;SDS011;8463;48.094;7.970;2023-02-28T17:32:13;11.23;;;10.10;;
2408;SDS011;8463;48.094;7.970;2023-02-28T17:34:38;12.20;;;9.67;;
2408;SDS011;8463;48.094;7.970;2023-02-28T17:37:04;9.80;;;8.77;;
2408;SDS011;8463;48.094;7.970;2023-02-28T17:39:30;14.00;;;9.83;;
2408;SDS011;8463;48.094;7.970;2023-02-28T17:41:56;10.20;;;9.10;;
2408;SDS011;8463;48.094;7.970;2023-02-28T17:44:23;11.07;;;8.90;;
2408;SDS011;8463;48.094;7.970;2023-02-28T17:46:49;15.67;;;9.50;;
2408;SDS011;8463;48.094;7.970;2023-02-28T17:49:16;12.17;;;9.90;;
2408;SDS011;8463;48.094;7.970;2023-02-28T17:51:43;8.90;;;7.60;;
2408;SDS011;8463;48.094;7.970;2023-02-28T17:54:09;9.60;;;8.37;;
2408;SDS011;8463;48.094;7.970;2023-02-28T17:56:35;9.67;;;8.70;;
2408;SDS011;8463;48.094;7.970;2023-02-28T17:59:00;11.03;;;8.10;;
2408;SDS011;8463;48.094;7.970;2023-02-28T18:01:26;10.53;;;8.97;;
2408;SDS011;8463;48.094;7.970;2023-02-28T18:03:55;9.83;;;7.53;;
2408;SDS011;8463;48.094;7.970;2023-02-28T18:06:25;9.13;;;7.43;;
2408;SDS011;8463;48.094;7.970;2023-02-28T18:08:53;10.37;;;9.07;;
2408;SDS011;8463;48.094;7.970;2023-02-28T18:11:20;13.67;;;8.53;;
2408;SDS011;8463;48.094;7.970;2023-02-28T18:13:50;10.30;;;9.00;;
2408;SDS011;8463;48.094;7.970;2023-02-28T18:16:18;13.30;;;9.80;;
2408;SDS011;8463;48.094;7.970;2023-02-28T18:18:44;8.30;;;7.33;;
2408;SDS011;8463;48.094;7.970;2023-02-28T18:21:11;11.77;;;9.30;;
2408;SDS011;8463;48.094;7.970;2023-02-28T18:23:39;10.77;;;8.20;;
2408;SDS011;8463;48.094;7.970;2023-02-28T18:26:16;12.47;;;8.90;;
2408;SDS011;8463;48.094;7.970;2023-02-28T18:28:43;12.93;;;8.30;;